Weather at Eulogio Sánchez Airport

Public forecast

Using degrees Celsius for public forecast. Weather courtesy of forecast.io.

Current aviation weather report (METAR) for Eulogio Sánchez Airport

Retrieved 2021/03/07 12:00 UTC (2 hours ago):

SCTB 071200Z 00000KT CAVOK 17/13 Q1016

Closest aviation forecast (TAF) to Eulogio Sánchez Airport

Closest forecast is Comodoro Arturo Merino Benítez International Airport, 12.6 nm (23.3 km) WNW. Retrieved 2021/03/07 12:00 UTC (2 hours ago):

TAF SCEL 071000Z 0712/0812 16004KT CAVOK TX31/0719Z TN15/0811Z BECMG 0714/0716 18007KT BECMG 0717/0719 21015KT BECMG 0801/0803 16004KT TEMPO 0809/0812 VRB02KT 7000 NSC